首页
METAR-TAF:

METAR-TAF

机场 :

Benson, 英格兰

纬度: 51-37N, 经度: 001-05W, 海拔: 63米

当前天气观测

该预报发布于1小时和18分钟前的20:50 UTC
风速9节,风向
温度 2°C
湿度 75%
气压 1040 hPa
能见度10公里或以上

METAR: EGUB 292050Z AUTO 01009KT 9999 // FEW050/// 02/M02 Q1040

时间: 23:08 (22:08 UTC)


TAF: 丢失

超过4000个机场的气象观测和天气预报(METAR&TAF报告)。

可查询的气象台以黄色和红色小点在地图上表示。

将鼠标移到小点上方,可查看气象台名称。

然后点击查看天气观测和预报。

如需切换地图:点击带黑十字的绿色按钮放大地图;点击带横线的绿色按钮缩小地图;或者点击绿色箭头查看邻近地区的地图。


METAR-TAF: